LICJ/PMO METAR and TAF weather

Enter ICAO airport designator
Station Type Date Time Source
LICJ METAR 2022/06/27 07:20 UTC NOAA

LICJ 270720Z 36007KT 320V060 CAVOK 31/17 Q1014


Station Type Date Time Source
LICJ Decoded METAR 2022/06/27 07:20 UTC NOAA

Palermo / Punta Raisi, Italy (LICJ) 38-11N 013-06E 21M
Jun 27, 2022 - 03:20 AM EDT / 2022.06.27 0720 UTC
Wind: from the N (360 degrees) at 8 MPH (7 KT) (direction variable):0
Visibility: greater than 7 mile(s):0
Temperature: 87 F (31 C)
Dew Point: 62 F (17 C)
Relative Humidity: 43%
Pressure (altimeter): 29.94 in. Hg (1014 hPa)
ob: LICJ 270720Z 36007KT 320V060 CAVOK 31/17 Q1014
cycle: 7

Station Type Date Time Source
LICJ TAF 2022/06/27 06:21 UTC NOAA

TAF LICJ 270500Z 2706/2806 18006KT CAVOK
BECMG 2708/2710 03012KT
BECMG 2716/2718 VRB05KT

Example: see airport list